Latest Weather Observations for Ferny Creek

IDV60901

Issued at 10:11 am EDT Friday 12 February 2016 (issued every 10 minutes, with the page automatically refreshed every 10 minutes)

About weather observations | Map of Melbourne area stations | Latest observations for Melbourne area | Other Formats
Station Details ID: 086266 Name: FERNY CREEK Lat: -37.87 Lon: 145.35 Height: 512.9 m
Data from the previous 72 hours. | See also: Recent months at Ferny Creek
Date/Time
EDT
Tmp

°C
App
Tmp
°C
Dew
Point
°C
Rel
Hum
%
Delta-T

°C
Wind Press
QNH
hPa
Press
MSL
hPa
Rain
since
9 am
mm
Dir
 
Spd
km/h
Gust
km/h
Spd
kts
Gust
kts
12/10:00am 15.8 16.2 12.5 81 1.9 ESE 2 6 1 3 1017.2 1015.6 0.0
12/09:30am 14.0 14.4 12.4 90 0.9 E 2 7 1 4 1017.3 1015.7 0.0
12/09:00am 13.5 13.0 12.2 92 0.7 NE 6 9 3 5 1017.4 1015.8 -
12/08:30am 13.2 12.5 11.9 92 0.7 ESE 7 13 4 7 1017.3 1015.7 -
12/08:00am 13.1 12.0 11.8 92 0.7 ESE 9 20 5 11 1017.2 1015.6 -
12/07:30am 12.9 11.7 11.6 92 0.7 E 9 17 5 9 1017.1 1015.5 -
12/07:00am 12.9 12.1 11.8 93 0.6 ESE 7 15 4 8 1017.2 1015.6 -
12/06:30am 13.0 11.9 11.9 93 0.6 E 9 19 5 10 1017.1 1015.5 -
12/06:00am 13.0 11.9 11.9 93 0.6 ESE 9 19 5 10 1016.4 1014.9 -
12/05:30am 12.8 11.6 11.7 93 0.6 ESE 9 17 5 9 1016.4 1014.9 -
12/05:00am 12.8 11.9 11.5 92 0.7 ESE 7 19 4 10 1016.5 1015.0 -
12/04:30am 12.9 12.0 11.5 91 0.8 ESE 7 15 4 8 1016.5 1015.0 -
12/04:00am 13.0 12.3 11.4 90 0.9 ESE 6 15 3 8 1016.5 1015.0 -
12/03:30am 12.6 11.8 11.0 90 0.9 ESE 6 11 3 6 1016.5 1015.0 -
12/03:00am 12.6 11.6 11.0 90 0.9 E 7 13 4 7 1016.6 1015.1 0.0
12/02:30am 12.5 11.7 10.9 90 0.9 ESE 6 9 3 5 1016.7 1015.2 -
12/02:00am 12.8 12.0 11.0 89 1.0 ESE 6 11 3 6 1017.2 1015.6 -
12/01:30am 12.8 12.0 10.9 88 1.0 ESE 6 11 3 6 1017.6 1016.0 -
12/01:00am 12.8 11.9 10.7 87 1.1 ESE 6 13 3 7 1017.9 1016.3 -
12/12:30am 13.2 12.1 10.7 85 1.3 ESE 7 15 4 8 1018.0 1016.4 -
12/12:00am 13.6 12.5 10.6 82 1.6 SE 7 19 4 10 1018.3 1016.8 -
 
Date/Time
EDT
Tmp

°C
App
Tmp
°C
Dew
Point
°C
Rel
Hum
%
Delta-T

°C
Wind Press
QNH
hPa
Press
MSL
hPa
Rain
since
9 am
mm
Dir
 
Spd
km/h
Gust
km/h
Spd
kts
Gust
kts
11/11:30pm 13.9 12.3 10.3 79 1.9 ESE 9 17 5 9 1018.4 1016.9 -
11/11:00pm 13.8 12.7 10.8 82 1.6 SE 7 15 4 8 1018.6 1017.1 -
11/10:30pm 13.9 12.4 10.7 81 1.7 SE 9 19 5 10 1018.7 1017.2 -
11/10:00pm 14.2 13.3 11.2 82 1.6 SE 7 15 4 8 1018.5 1017.0 -
11/09:30pm 14.2 13.3 11.2 82 1.6 SE 7 19 4 10 1018.0 1016.4 -
11/09:00pm 14.6 13.7 11.2 80 1.9 SE 7 19 4 10 1017.7 1016.1 0.0
11/08:30pm 15.1 14.2 11.3 78 2.1 SE 7 17 4 9 1017.5 1015.9 -
11/08:00pm 15.8 14.6 11.6 76 2.3 SSE 9 22 5 12 1017.4 1015.8 -
11/07:30pm 16.6 15.2 12.2 75 2.5 SSE 11 20 6 11 1017.0 1015.4 -
11/07:00pm 17.2 16.8 12.3 73 2.8 SE 6 13 3 7 1016.7 1015.2 -
11/06:30pm 17.9 17.4 12.6 71 3.0 SE 7 17 4 9 1016.4 1014.9 -
11/06:00pm 18.7 17.8 12.5 67 3.5 SSE 9 19 5 10 1016.3 1014.7 -
11/05:30pm 19.9 18.9 12.4 62 4.3 SE 9 19 5 10 1016.3 1014.7 -
11/05:00pm 21.3 20.7 12.2 56 5.2 S 7 13 4 7 1016.4 1014.9 -
11/04:30pm 21.5 20.6 12.6 57 5.2 SE 9 19 5 10 1016.2 1014.6 -
11/04:00pm 22.1 21.2 11.5 51 6.1 SE 7 15 4 8 1016.0 1014.4 -
11/03:30pm 22.6 21.8 11.7 50 6.3 ESE 7 15 4 8 1016.1 1014.5 -
11/03:00pm 21.7 20.1 11.4 52 5.9 E 11 19 6 10 1016.2 1014.6 0.0
11/02:30pm 21.6 20.4 11.6 53 5.7 ESE 9 17 5 9 1016.6 1015.1 -
11/02:00pm 21.6 21.1 12.5 56 5.3 ESE 7 24 4 13 1016.9 1015.3 -
11/01:30pm 20.6 19.5 11.8 57 5.0 ESE 9 19 5 10 1016.9 1015.3 -
11/01:00pm 20.9 19.7 11.5 55 5.3 ESE 9 15 5 8 1017.1 1015.5 -
11/12:30pm 19.9 18.9 12.4 62 4.3 SSE 9 19 5 10 1017.3 1015.7 -
11/12:00pm 19.2 18.2 12.2 64 4.0 E 9 19 5 10 1017.8 1016.2 -
11/11:30am 19.1 17.8 11.4 61 4.3 SE 9 19 5 10 1018.0 1016.4 -
11/11:00am 18.7 17.9 11.8 64 3.9 ESE 7 11 4 6 1018.1 1016.6 -
11/09:30am 15.3 13.8 10.7 74 2.5 E 9 15 5 8 1018.2 1016.7 0.0
11/09:00am 15.7 14.7 12.3 80 1.9 E 9 17 5 9 1018.1 1016.6 0.0
11/08:30am 14.2 13.1 11.9 86 1.3 ESE 9 17 5 9 1017.9 1016.3 0.0
11/08:00am 13.8 13.2 12.4 91 0.8 ESE 7 13 4 7 1017.7 1016.1 0.0
11/07:30am 13.4 13.0 12.3 93 0.6 ESE 6 7 3 4 1017.5 1015.9 0.0
11/07:00am 13.3 12.9 12.4 94 0.5 ESE 6 13 3 7 1017.3 1015.7 0.0
11/06:30am 13.4 13.0 12.5 94 0.5 ESE 6 9 3 5 1016.9 1015.3 0.0
11/06:00am 13.4 13.4 12.5 94 0.5 ESE 4 7 2 4 1016.5 1015.0 0.0
11/05:30am 13.4 13.0 12.5 94 0.5 ESE 6 9 3 5 1016.4 1014.9 0.0
11/05:00am 13.3 12.8 12.2 93 0.6 ESE 6 9 3 5 1016.1 1014.5 0.0
11/04:30am 13.5 13.1 12.4 93 0.6 SE 6 9 3 5 1016.1 1014.5 0.0
11/04:00am 13.5 13.1 12.4 93 0.6 ESE 6 13 3 7 1016.1 1014.5 0.0
11/03:30am 13.5 13.5 12.4 93 0.6 ESE 4 7 2 4 1016.1 1014.5 0.0
11/03:00am 13.2 13.1 12.1 93 0.6 ESE 4 9 2 5 1016.2 1014.6 0.0
11/02:30am 13.1 12.9 11.7 91 0.8 ESE 4 9 2 5 1016.5 1015.0 0.0
11/02:00am 13.3 12.8 12.0 92 0.7 ESE 6 11 3 6 1016.9 1015.3 0.0
11/01:30am 13.3 12.8 11.9 91 0.8 ESE 6 11 3 6 1017.0 1015.4 0.0
11/01:00am 13.5 13.0 12.1 91 0.8 ESE 6 11 3 6 1017.2 1015.6 0.0
11/12:30am 13.5 12.9 12.4 93 0.6 ESE 7 13 4 7 1017.3 1015.7 0.0
11/12:00am 13.5 13.1 12.4 93 0.6 ESE 6 9 3 5 1017.4 1015.8 0.0
 
Date/Time
EDT
Tmp

°C
App
Tmp
°C
Dew
Point
°C
Rel
Hum
%
Delta-T

°C
Wind Press
QNH
hPa
Press
MSL
hPa
Rain
since
9 am
mm
Dir
 
Spd
km/h
Gust
km/h
Spd
kts
Gust
kts
10/11:30pm 13.4 13.0 12.3 93 0.6 ESE 6 11 3 6 1017.4 1015.8 0.0
10/11:00pm 13.4 12.9 12.0 91 0.8 ESE 6 11 3 6 1017.5 1015.9 0.0
10/10:30pm 13.5 12.8 11.4 87 1.1 SE 6 11 3 6 1017.4 1015.8 0.0
10/10:00pm 13.9 13.0 10.7 81 1.7 SE 6 11 3 6 1017.2 1015.6 0.0
10/09:30pm 14.2 13.3 10.8 80 1.8 SE 6 11 3 6 1017.0 1015.4 0.0
10/09:00pm 15.1 14.7 11.1 77 2.2 SE 4 9 2 5 1016.6 1015.1 0.0
10/08:30pm 16.1 15.8 11.5 74 2.5 ESE 4 9 2 5 1016.4 1014.9 0.0
10/08:00pm 16.6 16.3 11.3 71 2.9 ESE 4 6 2 3 1016.3 1014.7 0.0
10/07:30pm 17.7 17.5 11.7 68 3.4 ESE 4 7 2 4 1016.2 1014.6 0.0
10/07:00pm 18.4 17.8 11.7 65 3.8 SE 6 11 3 6 1016.0 1014.4 0.0
10/06:30pm 19.0 18.4 11.8 63 4.1 ESE 6 11 3 6 1015.8 1014.2 0.0
10/06:00pm 20.0 19.6 12.3 61 4.4 SSE 6 13 3 7 1015.6 1014.0 0.0
10/05:30pm 21.3 20.8 12.2 56 5.2 S 6 17 3 9 1015.6 1014.0 0.0
10/05:00pm 21.2 20.8 12.3 57 5.1 S 6 9 3 5 1015.5 1013.9 0.0
10/04:30pm 21.4 21.0 12.5 57 5.2 SSE 6 17 3 9 1015.5 1013.9 0.0
10/04:00pm 21.4 20.9 12.8 58 5.0 S 7 15 4 8 1015.7 1014.1 0.0
10/03:30pm 22.1 22.0 14.0 60 4.8 SSE 7 17 4 9 1015.7 1014.1 0.0
10/03:00pm 22.5 22.3 13.6 57 5.3 SE 7 11 4 6 1015.9 1014.3 0.0
10/02:30pm 21.9 21.5 13.0 57 5.2 SSW 7 11 4 6 1016.0 1014.4 0.0
10/02:00pm 21.3 20.7 12.4 57 5.1 SSE 7 13 4 7 1016.1 1014.5 0.0
10/01:30pm 21.1 21.0 13.3 61 4.6 SSW 6 11 3 6 1016.3 1014.7 0.0
10/01:00pm 20.1 20.4 13.3 65 4.0 SSE 4 7 2 4 1016.5 1015.0 0.0
10/12:30pm 20.1 20.2 13.8 67 3.7 S 6 13 3 7 1016.9 1015.3 0.0
10/12:00pm 19.3 19.2 13.3 68 3.5 ESE 6 11 3 6 1016.9 1015.3 0.0
10/11:30am 18.0 18.4 13.7 76 2.5 SSE 4 6 2 3 1017.2 1015.6 0.0
10/11:00am 16.2 16.0 12.9 81 1.9 ENE 6 7 3 4 1017.3 1015.7 0.0
10/10:30am 15.3 15.8 12.8 85 1.4 SW 2 4 1 2 1017.4 1015.8 0.0
10/10:00am 14.6 15.2 13.1 91 0.8 ESE 2 6 1 3 1017.3 1015.7 0.0
10/09:30am 14.1 14.7 13.0 93 0.6 S 2 6 1 3 1017.5 1015.9 0.0
10/09:00am 13.7 14.2 12.9 95 0.4 SE 2 4 1 2 1017.3 1015.7 0.0
10/08:30am 13.7 14.3 13.1 96 0.3 SE 2 6 1 3 1017.0 1015.4 0.0
10/08:00am 13.4 13.5 12.8 96 0.3 SE 4 6 2 3 1016.6 1015.1 0.0
10/07:30am 13.5 14.0 12.9 96 0.3 SE 2 6 1 3 1016.3 1014.7 0.0
10/07:00am 13.4 14.3 12.8 96 0.3 CALM 0 0 0 0 1016.1 1014.5 0.0
10/06:30am 13.4 13.9 12.8 96 0.3 E 2 6 1 3 1015.8 1014.2 0.0
10/06:00am 13.5 14.4 12.9 96 0.3 CALM 0 4 0 2 1015.5 1013.9 0.0
10/05:30am 13.4 13.9 12.8 96 0.3 ESE 2 4 1 2 1015.8 1014.2 0.0
10/05:00am 13.5 14.0 12.9 96 0.3 SE 2 4 1 2 1015.9 1014.3 0.0
10/04:30am 13.9 14.6 13.3 96 0.3 SE 2 6 1 3 1016.0 1014.4 0.0
10/04:00am 13.9 14.6 13.3 96 0.3 S 2 6 1 3 1016.1 1014.5 0.0
10/03:30am 13.9 14.9 13.3 96 0.3 CALM 0 4 0 2 1016.1 1014.5 0.0
10/03:00am 13.6 14.5 12.8 95 0.4 CALM 0 0 0 0 1016.3 1014.7 0.0
10/02:30am 13.9 14.9 13.3 96 0.3 CALM 0 0 0 0 1016.5 1015.0 0.0
10/02:00am 14.0 14.6 13.2 95 0.5 SE 2 4 1 2 1016.9 1015.3 0.0
10/01:30am 13.8 14.3 12.9 94 0.5 SSW 2 7 1 4 1017.1 1015.5 0.0
10/01:00am 13.9 14.4 12.8 93 0.6 SW 2 4 1 2 1017.4 1015.8 0.0
10/12:30am 14.0 14.8 12.7 92 0.7 CALM 0 0 0 0 1017.5 1015.9 0.0
10/12:00am 13.9 14.3 12.6 92 0.7 SW 2 6 1 3 1017.7 1016.1 0.0
 
Date/Time
EDT
Tmp

°C
App
Tmp
°C
Dew
Point
°C
Rel
Hum
%
Delta-T

°C
Wind Press
QNH
hPa
Press
MSL
hPa
Rain
since
9 am
mm
Dir
 
Spd
km/h
Gust
km/h
Spd
kts
Gust
kts
09/11:30pm 13.9 14.3 12.5 91 0.8 SW 2 6 1 3 1018.0 1016.4 0.0
09/11:00pm 14.2 14.6 12.6 90 0.9 SE 2 4 1 2 1018.3 1016.8 0.0
09/10:30pm 14.5 14.9 12.5 88 1.1 SE 2 6 1 3 1018.5 1017.0 0.0
09/10:00pm 14.4 14.5 12.6 89 1.0 ESE 4 6 2 3 1018.5 1017.0 0.0
09/09:30pm 14.8 14.9 12.8 88 1.1 ESE 4 9 2 5 1018.4 1016.9 0.0
09/09:00pm 15.5 15.7 13.2 86 1.3 ESE 4 6 2 3 1018.5 1017.0 0.0
09/08:30pm 16.3 16.6 13.4 83 1.7 SE 4 9 2 5 1018.5 1017.0 0.0
09/08:00pm 17.2 17.5 13.3 78 2.2 SE 4 9 2 5 1018.5 1017.0 0.0
09/07:30pm 18.3 18.0 13.4 73 2.8 SE 7 13 4 7 1018.6 1017.1 0.0
09/07:00pm 19.3 19.3 13.5 69 3.4 SE 6 13 3 7 1018.4 1016.9 0.0
09/06:30pm 19.7 19.6 13.4 67 3.7 SE 6 13 3 7 1018.3 1016.8 0.0
09/06:00pm 20.9 20.7 13.6 63 4.3 ESE 7 13 4 7 1018.3 1016.8 0.0
09/05:30pm 22.6 22.7 13.9 58 5.2 S 6 15 3 8 1018.6 1017.1 0.0
09/05:00pm 23.2 23.1 13.9 56 5.6 SE 7 11 4 6 1018.9 1017.3 0.0
09/04:30pm 23.5 23.2 13.4 53 6.0 SSE 7 15 4 8 1019.2 1017.6 0.0
09/04:00pm 24.1 24.2 13.9 53 6.1 SSE 6 15 3 8 1019.4 1017.8 0.0
09/03:30pm 23.6 23.3 12.6 50 6.4 SSE 6 17 3 9 1019.7 1018.1 0.0
09/03:00pm 23.0 22.5 12.6 52 6.1 E 7 13 4 7 1020.0 1018.5 0.0
09/02:30pm 23.1 22.9 13.0 53 5.9 SSE 6 9 3 5 1020.4 1018.9 0.0
09/02:00pm 21.6 20.7 11.3 52 5.8 ESE 7 13 4 7 1020.7 1019.2 0.0
09/01:30pm 22.2 21.5 11.3 50 6.2 SSE 6 13 3 7 1021.1 1019.5 0.0
09/01:00pm 21.1 20.4 12.0 56 5.2 SSE 7 15 4 8 1021.3 1019.7 0.0
09/12:30pm 20.6 20.1 12.6 60 4.6 SE 7 13 4 7 1021.5 1019.9 0.0
09/12:00pm 20.0 19.3 11.5 58 4.8 ESE 6 11 3 6 1021.8 1020.3 0.0
09/11:30am 18.8 18.0 11.6 63 4.1 ESE 7 11 4 6 1022.0 1020.5 0.0
09/11:00am 18.3 18.2 12.1 67 3.5 SE 4 9 2 5 1022.1 1020.6 0.0
09/10:30am 17.3 16.5 11.6 69 3.2 SE 7 11 4 6 1022.1 1020.6 0.0

Latest Capital City Observations: Canberra | Sydney | Melbourne | Brisbane | Adelaide | Perth | Hobart | Darwin

Other Formats:

Comma delimited format used in spreadsheet applications
http://www.bom.gov.au/fwo/IDV60901/IDV60901.94872.axf

JavaScript Object Notation format (JSON) in row-major order
http://www.bom.gov.au/fwo/IDV60901/IDV60901.94872.json